sensor_id;sensor_type;location;lat;lon;timestamp;P1;durP1;ratioP1;P2;durP2;ratioP2
10045;SDS011;5063;50.878;4.742;2023-09-19T00:01:32;12.63;;;2.53;;
10045;SDS011;5063;50.878;4.742;2023-09-19T00:03:58;12.13;;;2.40;;
10045;SDS011;5063;50.878;4.742;2023-09-19T00:06:27;10.47;;;2.80;;
10045;SDS011;5063;50.878;4.742;2023-09-19T00:08:56;11.20;;;2.93;;
10045;SDS011;5063;50.878;4.742;2023-09-19T00:11:24;5.73;;;2.53;;
10045;SDS011;5063;50.878;4.742;2023-09-19T00:13:51;6.30;;;2.47;;
10045;SDS011;5063;50.878;4.742;2023-09-19T00:16:16;8.87;;;2.57;;
10045;SDS011;5063;50.878;4.742;2023-09-19T00:18:44;7.57;;;2.50;;
10045;SDS011;5063;50.878;4.742;2023-09-19T00:21:10;9.90;;;3.10;;
10045;SDS011;5063;50.878;4.742;2023-09-19T00:23:37;9.97;;;2.30;;
10045;SDS011;5063;50.878;4.742;2023-09-19T00:26:05;10.17;;;2.97;;
10045;SDS011;5063;50.878;4.742;2023-09-19T00:28:31;7.93;;;2.50;;
10045;SDS011;5063;50.878;4.742;2023-09-19T00:30:58;10.17;;;2.47;;
10045;SDS011;5063;50.878;4.742;2023-09-19T00:33:26;9.47;;;3.03;;
10045;SDS011;5063;50.878;4.742;2023-09-19T00:35:54;8.07;;;2.93;;
10045;SDS011;5063;50.878;4.742;2023-09-19T00:38:22;11.07;;;2.40;;
10045;SDS011;5063;50.878;4.742;2023-09-19T00:40:52;8.63;;;2.80;;
10045;SDS011;5063;50.878;4.742;2023-09-19T00:43:22;9.10;;;2.63;;
10045;SDS011;5063;50.878;4.742;2023-09-19T00:45:50;8.33;;;2.33;;
10045;SDS011;5063;50.878;4.742;2023-09-19T00:48:18;11.60;;;3.00;;
10045;SDS011;5063;50.878;4.742;2023-09-19T00:50:45;6.70;;;2.27;;
10045;SDS011;5063;50.878;4.742;2023-09-19T00:53:13;7.50;;;2.37;;
10045;SDS011;5063;50.878;4.742;2023-09-19T00:55:40;12.10;;;2.67;;
10045;SDS011;5063;50.878;4.742;2023-09-19T00:58:07;9.90;;;2.63;;
10045;SDS011;5063;50.878;4.742;2023-09-19T01:00:35;10.73;;;2.77;;
10045;SDS011;5063;50.878;4.742;2023-09-19T01:03:01;7.50;;;2.70;;
10045;SDS011;5063;50.878;4.742;2023-09-19T01:05:28;6.57;;;2.10;;
10045;SDS011;5063;50.878;4.742;2023-09-19T01:07:54;7.37;;;2.73;;
10045;SDS011;5063;50.878;4.742;2023-09-19T01:10:20;10.03;;;2.67;;
10045;SDS011;5063;50.878;4.742;2023-09-19T01:23:21;7.70;;;2.10;;
10045;SDS011;5063;50.878;4.742;2023-09-19T01:26:24;9.30;;;2.57;;
10045;SDS011;5063;50.878;4.742;2023-09-19T01:31:39;6.03;;;2.50;;
10045;SDS011;5063;50.878;4.742;2023-09-19T01:34:07;10.53;;;2.93;;
10045;SDS011;5063;50.878;4.742;2023-09-19T01:36:37;8.63;;;2.57;;
10045;SDS011;5063;50.878;4.742;2023-09-19T01:39:12;7.93;;;2.37;;
10045;SDS011;5063;50.878;4.742;2023-09-19T01:44:26;9.93;;;2.63;;
10045;SDS011;5063;50.878;4.742;2023-09-19T01:47:04;11.13;;;2.73;;
10045;SDS011;5063;50.878;4.742;2023-09-19T01:49:42;11.93;;;2.93;;
10045;SDS011;5063;50.878;4.742;2023-09-19T01:52:15;9.73;;;3.50;;
10045;SDS011;5063;50.878;4.742;2023-09-19T01:54:51;11.33;;;2.27;;
10045;SDS011;5063;50.878;4.742;2023-09-19T01:57:28;7.83;;;2.40;;
10045;SDS011;5063;50.878;4.742;2023-09-19T02:00:07;10.60;;;3.33;;
10045;SDS011;5063;50.878;4.742;2023-09-19T02:02:37;10.20;;;2.80;;
10045;SDS011;5063;50.878;4.742;2023-09-19T02:05:04;6.33;;;2.43;;
10045;SDS011;5063;50.878;4.742;2023-09-19T02:07:31;7.37;;;2.67;;
10045;SDS011;5063;50.878;4.742;2023-09-19T02:09:58;6.33;;;2.30;;
10045;SDS011;5063;50.878;4.742;2023-09-19T02:12:30;15.23;;;3.13;;
10045;SDS011;5063;50.878;4.742;2023-09-19T02:14:56;9.10;;;2.60;;
10045;SDS011;5063;50.878;4.742;2023-09-19T02:17:22;10.30;;;3.13;;
10045;SDS011;5063;50.878;4.742;2023-09-19T02:19:51;10.30;;;3.30;;
10045;SDS011;5063;50.878;4.742;2023-09-19T02:22:20;10.20;;;2.43;;
10045;SDS011;5063;50.878;4.742;2023-09-19T02:24:49;13.03;;;3.30;;
10045;SDS011;5063;50.878;4.742;2023-09-19T02:27:16;9.13;;;2.90;;
10045;SDS011;5063;50.878;4.742;2023-09-19T02:29:44;9.47;;;3.53;;
10045;SDS011;5063;50.878;4.742;2023-09-19T02:32:10;9.97;;;2.80;;
10045;SDS011;5063;50.878;4.742;2023-09-19T02:34:36;8.90;;;2.40;;
10045;SDS011;5063;50.878;4.742;2023-09-19T02:37:04;11.73;;;2.63;;
10045;SDS011;5063;50.878;4.742;2023-09-19T02:39:30;12.83;;;3.10;;
10045;SDS011;5063;50.878;4.742;2023-09-19T02:41:57;13.13;;;2.73;;
10045;SDS011;5063;50.878;4.742;2023-09-19T02:44:22;9.57;;;2.70;;
10045;SDS011;5063;50.878;4.742;2023-09-19T02:46:49;5.77;;;2.20;;
10045;SDS011;5063;50.878;4.742;2023-09-19T02:49:15;9.87;;;3.53;;
10045;SDS011;5063;50.878;4.742;2023-09-19T02:51:43;6.63;;;2.87;;
10045;SDS011;5063;50.878;4.742;2023-09-19T02:54:09;7.13;;;2.33;;
10045;SDS011;5063;50.878;4.742;2023-09-19T02:56:35;7.70;;;3.00;;
10045;SDS011;5063;50.878;4.742;2023-09-19T02:59:01;12.43;;;3.43;;
10045;SDS011;5063;50.878;4.742;2023-09-19T03:01:27;10.43;;;2.40;;
10045;SDS011;5063;50.878;4.742;2023-09-19T03:03:53;9.47;;;2.67;;
10045;SDS011;5063;50.878;4.742;2023-09-19T03:06:20;10.67;;;3.07;;
10045;SDS011;5063;50.878;4.742;2023-09-19T03:08:46;9.57;;;2.43;;
10045;SDS011;5063;50.878;4.742;2023-09-19T03:11:14;7.97;;;2.57;;
10045;SDS011;5063;50.878;4.742;2023-09-19T03:13:41;10.43;;;2.60;;
10045;SDS011;5063;50.878;4.742;2023-09-19T03:16:07;15.87;;;3.23;;
10045;SDS011;5063;50.878;4.742;2023-09-19T03:18:34;11.10;;;2.97;;
10045;SDS011;5063;50.878;4.742;2023-09-19T03:21:00;13.57;;;3.20;;
10045;SDS011;5063;50.878;4.742;2023-09-19T03:23:26;8.50;;;3.00;;
10045;SDS011;5063;50.878;4.742;2023-09-19T03:25:53;11.27;;;3.20;;
10045;SDS011;5063;50.878;4.742;2023-09-19T03:28:19;11.90;;;2.83;;
10045;SDS011;5063;50.878;4.742;2023-09-19T03:30:56;11.53;;;2.70;;
10045;SDS011;5063;50.878;4.742;2023-09-19T03:33:29;6.60;;;2.53;;
10045;SDS011;5063;50.878;4.742;2023-09-19T03:35:59;11.17;;;2.93;;
10045;SDS011;5063;50.878;4.742;2023-09-19T03:38:26;12.93;;;3.20;;
10045;SDS011;5063;50.878;4.742;2023-09-19T03:40:53;10.57;;;2.77;;
10045;SDS011;5063;50.878;4.742;2023-09-19T03:43:18;6.97;;;3.27;;
10045;SDS011;5063;50.878;4.742;2023-09-19T03:45:44;9.20;;;2.83;;
10045;SDS011;5063;50.878;4.742;2023-09-19T03:48:11;6.23;;;2.47;;
10045;SDS011;5063;50.878;4.742;2023-09-19T03:50:38;7.00;;;3.20;;
10045;SDS011;5063;50.878;4.742;2023-09-19T03:53:05;12.83;;;2.97;;
10045;SDS011;5063;50.878;4.742;2023-09-19T03:55:34;10.73;;;2.83;;
10045;SDS011;5063;50.878;4.742;2023-09-19T03:58:01;7.23;;;2.87;;
10045;SDS011;5063;50.878;4.742;2023-09-19T04:00:27;15.50;;;3.73;;
10045;SDS011;5063;50.878;4.742;2023-09-19T04:02:54;7.77;;;2.43;;
10045;SDS011;5063;50.878;4.742;2023-09-19T04:05:21;8.10;;;2.77;;
10045;SDS011;5063;50.878;4.742;2023-09-19T04:07:48;14.73;;;3.80;;
10045;SDS011;5063;50.878;4.742;2023-09-19T04:10:15;6.50;;;2.70;;
10045;SDS011;5063;50.878;4.742;2023-09-19T04:12:49;7.00;;;2.83;;
10045;SDS011;5063;50.878;4.742;2023-09-19T04:15:19;8.27;;;3.00;;
10045;SDS011;5063;50.878;4.742;2023-09-19T04:17:48;8.93;;;3.37;;
10045;SDS011;5063;50.878;4.742;2023-09-19T04:20:14;7.30;;;3.17;;
10045;SDS011;5063;50.878;4.742;2023-09-19T04:22:41;8.33;;;2.60;;
10045;SDS011;5063;50.878;4.742;2023-09-19T04:25:06;10.60;;;2.60;;
10045;SDS011;5063;50.878;4.742;2023-09-19T04:27:33;11.00;;;3.23;;
10045;SDS011;5063;50.878;4.742;2023-09-19T04:29:59;11.30;;;3.23;;
10045;SDS011;5063;50.878;4.742;2023-09-19T04:32:33;8.93;;;2.60;;
10045;SDS011;5063;50.878;4.742;2023-09-19T04:35:01;6.20;;;2.70;;
10045;SDS011;5063;50.878;4.742;2023-09-19T04:37:30;5.90;;;3.30;;
10045;SDS011;5063;50.878;4.742;2023-09-19T04:39:56;9.20;;;2.67;;
10045;SDS011;5063;50.878;4.742;2023-09-19T04:42:22;14.90;;;3.37;;
10045;SDS011;5063;50.878;4.742;2023-09-19T04:44:50;8.67;;;2.90;;
10045;SDS011;5063;50.878;4.742;2023-09-19T04:47:18;11.97;;;3.23;;
10045;SDS011;5063;50.878;4.742;2023-09-19T04:49:44;6.57;;;2.80;;
10045;SDS011;5063;50.878;4.742;2023-09-19T04:52:10;6.27;;;2.70;;
10045;SDS011;5063;50.878;4.742;2023-09-19T04:54:35;9.63;;;3.00;;
10045;SDS011;5063;50.878;4.742;2023-09-19T04:57:01;9.33;;;2.63;;
10045;SDS011;5063;50.878;4.742;2023-09-19T04:59:27;6.20;;;2.27;;
10045;SDS011;5063;50.878;4.742;2023-09-19T05:01:53;9.50;;;2.77;;
10045;SDS011;5063;50.878;4.742;2023-09-19T05:04:19;8.87;;;3.03;;
10045;SDS011;5063;50.878;4.742;2023-09-19T05:06:45;11.70;;;2.70;;
10045;SDS011;5063;50.878;4.742;2023-09-19T05:09:10;8.70;;;2.80;;
10045;SDS011;5063;50.878;4.742;2023-09-19T05:11:36;11.43;;;3.10;;
10045;SDS011;5063;50.878;4.742;2023-09-19T05:14:03;8.57;;;2.93;;
10045;SDS011;5063;50.878;4.742;2023-09-19T05:16:29;12.10;;;2.97;;
10045;SDS011;5063;50.878;4.742;2023-09-19T05:18:58;9.27;;;2.83;;
10045;SDS011;5063;50.878;4.742;2023-09-19T05:21:25;8.80;;;2.97;;
10045;SDS011;5063;50.878;4.742;2023-09-19T05:23:54;7.77;;;2.77;;
10045;SDS011;5063;50.878;4.742;2023-09-19T05:26:20;14.80;;;3.23;;
10045;SDS011;5063;50.878;4.742;2023-09-19T05:28:46;8.00;;;2.43;;
10045;SDS011;5063;50.878;4.742;2023-09-19T05:31:13;10.60;;;2.63;;
10045;SDS011;5063;50.878;4.742;2023-09-19T05:33:40;14.10;;;3.07;;
10045;SDS011;5063;50.878;4.742;2023-09-19T05:36:06;8.03;;;2.43;;
10045;SDS011;5063;50.878;4.742;2023-09-19T05:38:32;12.87;;;2.93;;
10045;SDS011;5063;50.878;4.742;2023-09-19T05:40:58;12.87;;;3.07;;
10045;SDS011;5063;50.878;4.742;2023-09-19T05:43:23;6.23;;;2.50;;
10045;SDS011;5063;50.878;4.742;2023-09-19T05:45:49;7.83;;;2.40;;
10045;SDS011;5063;50.878;4.742;2023-09-19T05:48:17;9.13;;;2.93;;
10045;SDS011;5063;50.878;4.742;2023-09-19T05:50:42;9.47;;;2.73;;
10045;SDS011;5063;50.878;4.742;2023-09-19T05:53:09;11.17;;;2.80;;
10045;SDS011;5063;50.878;4.742;2023-09-19T05:55:39;10.77;;;2.90;;
10045;SDS011;5063;50.878;4.742;2023-09-19T05:58:05;7.37;;;3.20;;
10045;SDS011;5063;50.878;4.742;2023-09-19T06:00:32;18.67;;;3.20;;
10045;SDS011;5063;50.878;4.742;2023-09-19T06:02:58;7.77;;;2.43;;
10045;SDS011;5063;50.878;4.742;2023-09-19T06:05:25;8.03;;;2.50;;
10045;SDS011;5063;50.878;4.742;2023-09-19T06:07:52;13.37;;;3.27;;
10045;SDS011;5063;50.878;4.742;2023-09-19T06:10:18;14.03;;;2.53;;
10045;SDS011;5063;50.878;4.742;2023-09-19T06:12:46;9.50;;;2.60;;
10045;SDS011;5063;50.878;4.742;2023-09-19T06:15:12;13.13;;;3.00;;
10045;SDS011;5063;50.878;4.742;2023-09-19T06:17:47;13.07;;;3.03;;
10045;SDS011;5063;50.878;4.742;2023-09-19T06:20:20;7.87;;;2.47;;
10045;SDS011;5063;50.878;4.742;2023-09-19T06:22:48;11.43;;;2.50;;
10045;SDS011;5063;50.878;4.742;2023-09-19T06:25:14;11.40;;;3.30;;
10045;SDS011;5063;50.878;4.742;2023-09-19T06:27:45;13.33;;;2.87;;
10045;SDS011;5063;50.878;4.742;2023-09-19T06:30:11;10.00;;;2.93;;
10045;SDS011;5063;50.878;4.742;2023-09-19T06:32:37;12.00;;;2.80;;
10045;SDS011;5063;50.878;4.742;2023-09-19T06:35:03;9.33;;;2.77;;
10045;SDS011;5063;50.878;4.742;2023-09-19T06:37:32;7.90;;;2.47;;
10045;SDS011;5063;50.878;4.742;2023-09-19T06:39:59;4.70;;;2.47;;
10045;SDS011;5063;50.878;4.742;2023-09-19T06:42:25;6.47;;;2.43;;
10045;SDS011;5063;50.878;4.742;2023-09-19T06:44:53;9.30;;;2.80;;
10045;SDS011;5063;50.878;4.742;2023-09-19T06:47:19;8.67;;;2.47;;
10045;SDS011;5063;50.878;4.742;2023-09-19T06:49:45;8.23;;;2.63;;
10045;SDS011;5063;50.878;4.742;2023-09-19T06:52:11;8.77;;;2.23;;
10045;SDS011;5063;50.878;4.742;2023-09-19T06:54:36;9.33;;;2.57;;
10045;SDS011;5063;50.878;4.742;2023-09-19T06:57:02;6.77;;;2.53;;
10045;SDS011;5063;50.878;4.742;2023-09-19T06:59:28;6.67;;;2.33;;
10045;SDS011;5063;50.878;4.742;2023-09-19T07:01:54;8.97;;;2.40;;
10045;SDS011;5063;50.878;4.742;2023-09-19T07:04:20;7.70;;;2.73;;
10045;SDS011;5063;50.878;4.742;2023-09-19T07:06:49;6.30;;;2.50;;
10045;SDS011;5063;50.878;4.742;2023-09-19T07:09:15;9.50;;;2.97;;
10045;SDS011;5063;50.878;4.742;2023-09-19T07:11:42;10.37;;;3.13;;
10045;SDS011;5063;50.878;4.742;2023-09-19T07:14:08;6.23;;;2.37;;
10045;SDS011;5063;50.878;4.742;2023-09-19T07:16:36;7.60;;;2.97;;
10045;SDS011;5063;50.878;4.742;2023-09-19T07:19:07;13.00;;;2.73;;
10045;SDS011;5063;50.878;4.742;2023-09-19T07:21:33;7.57;;;2.77;;
10045;SDS011;5063;50.878;4.742;2023-09-19T07:24:00;5.70;;;2.03;;
10045;SDS011;5063;50.878;4.742;2023-09-19T07:26:29;9.00;;;2.30;;
10045;SDS011;5063;50.878;4.742;2023-09-19T07:28:56;8.53;;;2.47;;
10045;SDS011;5063;50.878;4.742;2023-09-19T07:31:22;6.00;;;2.07;;
10045;SDS011;5063;50.878;4.742;2023-09-19T07:33:50;9.67;;;2.40;;
10045;SDS011;5063;50.878;4.742;2023-09-19T07:36:16;8.60;;;2.43;;
10045;SDS011;5063;50.878;4.742;2023-09-19T07:38:42;6.07;;;1.97;;
10045;SDS011;5063;50.878;4.742;2023-09-19T07:41:08;10.20;;;3.17;;
10045;SDS011;5063;50.878;4.742;2023-09-19T07:43:34;7.77;;;2.30;;
10045;SDS011;5063;50.878;4.742;2023-09-19T07:46:07;5.57;;;2.27;;
10045;SDS011;5063;50.878;4.742;2023-09-19T07:48:36;10.53;;;2.63;;
10045;SDS011;5063;50.878;4.742;2023-09-19T07:51:06;6.03;;;2.10;;
10045;SDS011;5063;50.878;4.742;2023-09-19T07:53:34;6.30;;;2.60;;
10045;SDS011;5063;50.878;4.742;2023-09-19T07:56:04;8.13;;;2.33;;
10045;SDS011;5063;50.878;4.742;2023-09-19T07:58:30;8.10;;;2.83;;
10045;SDS011;5063;50.878;4.742;2023-09-19T08:00:56;7.23;;;3.00;;
10045;SDS011;5063;50.878;4.742;2023-09-19T08:03:28;7.47;;;2.37;;
10045;SDS011;5063;50.878;4.742;2023-09-19T08:05:55;11.07;;;2.60;;
10045;SDS011;5063;50.878;4.742;2023-09-19T08:08:22;9.50;;;2.63;;
10045;SDS011;5063;50.878;4.742;2023-09-19T08:10:57;6.90;;;2.30;;
10045;SDS011;5063;50.878;4.742;2023-09-19T08:13:24;11.90;;;2.57;;
10045;SDS011;5063;50.878;4.742;2023-09-19T08:15:50;9.40;;;2.65;;
10045;SDS011;5063;50.878;4.742;2023-09-19T08:18:18;9.65;;;2.75;;
10045;SDS011;5063;50.878;4.742;2023-09-19T08:20:48;7.32;;;2.25;;
10045;SDS011;5063;50.878;4.742;2023-09-19T08:23:15;7.03;;;2.30;;
10045;SDS011;5063;50.878;4.742;2023-09-19T08:25:43;6.72;;;2.78;;
10045;SDS011;5063;50.878;4.742;2023-09-19T08:28:10;12.73;;;3.30;;
10045;SDS011;5063;50.878;4.742;2023-09-19T08:30:37;6.65;;;2.45;;
10045;SDS011;5063;50.878;4.742;2023-09-19T08:33:05;11.30;;;2.72;;
10045;SDS011;5063;50.878;4.742;2023-09-19T08:35:32;8.88;;;2.28;;
10045;SDS011;5063;50.878;4.742;2023-09-19T08:37:58;10.37;;;3.00;;
10045;SDS011;5063;50.878;4.742;2023-09-19T08:40:29;9.90;;;2.63;;
10045;SDS011;5063;50.878;4.742;2023-09-19T08:42:58;8.80;;;2.80;;
10045;SDS011;5063;50.878;4.742;2023-09-19T08:45:25;7.05;;;2.55;;
10045;SDS011;5063;50.878;4.742;2023-09-19T08:48:37;10.25;;;2.95;;
10045;SDS011;5063;50.878;4.742;2023-09-19T08:53:34;10.45;;;2.80;;
10045;SDS011;5063;50.878;4.742;2023-09-19T08:56:04;8.88;;;2.40;;
10045;SDS011;5063;50.878;4.742;2023-09-19T08:58:41;9.02;;;2.80;;
10045;SDS011;5063;50.878;4.742;2023-09-19T09:01:17;9.07;;;3.15;;
10045;SDS011;5063;50.878;4.742;2023-09-19T09:03:53;11.70;;;2.72;;
10045;SDS011;5063;50.878;4.742;2023-09-19T09:06:23;7.30;;;2.78;;
10045;SDS011;5063;50.878;4.742;2023-09-19T09:09:00;8.05;;;2.72;;
10045;SDS011;5063;50.878;4.742;2023-09-19T09:11:29;9.90;;;2.20;;
10045;SDS011;5063;50.878;4.742;2023-09-19T09:13:58;6.57;;;2.53;;
10045;SDS011;5063;50.878;4.742;2023-09-19T09:16:28;7.40;;;2.35;;
10045;SDS011;5063;50.878;4.742;2023-09-19T09:18:56;8.05;;;2.33;;
10045;SDS011;5063;50.878;4.742;2023-09-19T09:21:26;10.95;;;3.40;;
10045;SDS011;5063;50.878;4.742;2023-09-19T09:23:56;7.57;;;2.63;;
10045;SDS011;5063;50.878;4.742;2023-09-19T09:26:40;5.53;;;2.50;;
10045;SDS011;5063;50.878;4.742;2023-09-19T09:29:12;9.57;;;2.72;;
10045;SDS011;5063;50.878;4.742;2023-09-19T09:31:38;5.90;;;2.08;;
10045;SDS011;5063;50.878;4.742;2023-09-19T09:34:07;7.72;;;2.42;;
10045;SDS011;5063;50.878;4.742;2023-09-19T09:36:34;8.40;;;2.50;;
10045;SDS011;5063;50.878;4.742;2023-09-19T09:39:02;10.73;;;2.50;;
10045;SDS011;5063;50.878;4.742;2023-09-19T09:41:41;7.63;;;2.35;;
10045;SDS011;5063;50.878;4.742;2023-09-19T09:44:17;5.20;;;2.08;;
10045;SDS011;5063;50.878;4.742;2023-09-19T09:46:44;5.53;;;1.83;;
10045;SDS011;5063;50.878;4.742;2023-09-19T09:49:24;7.68;;;2.28;;
10045;SDS011;5063;50.878;4.742;2023-09-19T09:52:03;5.78;;;2.10;;
10045;SDS011;5063;50.878;4.742;2023-09-19T09:54:41;4.75;;;2.30;;
10045;SDS011;5063;50.878;4.742;2023-09-19T09:57:30;8.52;;;2.58;;
10045;SDS011;5063;50.878;4.742;2023-09-19T09:59:59;5.22;;;2.20;;
10045;SDS011;5063;50.878;4.742;2023-09-19T10:02:54;8.68;;;2.20;;
10045;SDS011;5063;50.878;4.742;2023-09-19T10:05:23;8.93;;;2.20;;
10045;SDS011;5063;50.878;4.742;2023-09-19T10:07:55;6.88;;;2.03;;
10045;SDS011;5063;50.878;4.742;2023-09-19T10:10:36;5.60;;;1.90;;
10045;SDS011;5063;50.878;4.742;2023-09-19T10:13:09;9.00;;;2.15;;
10045;SDS011;5063;50.878;4.742;2023-09-19T10:15:43;8.90;;;1.90;;
10045;SDS011;5063;50.878;4.742;2023-09-19T10:18:26;5.43;;;2.45;;
10045;SDS011;5063;50.878;4.742;2023-09-19T10:20:55;7.07;;;1.77;;
10045;SDS011;5063;50.878;4.742;2023-09-19T10:23:22;10.00;;;2.00;;
10045;SDS011;5063;50.878;4.742;2023-09-19T10:25:51;6.25;;;1.92;;
10045;SDS011;5063;50.878;4.742;2023-09-19T10:28:18;7.00;;;2.17;;
10045;SDS011;5063;50.878;4.742;2023-09-19T10:30:49;4.72;;;1.98;;
10045;SDS011;5063;50.878;4.742;2023-09-19T10:33:17;6.30;;;1.90;;
10045;SDS011;5063;50.878;4.742;2023-09-19T10:35:48;5.53;;;1.95;;
10045;SDS011;5063;50.878;4.742;2023-09-19T10:38:19;8.50;;;1.65;;
10045;SDS011;5063;50.878;4.742;2023-09-19T10:40:49;5.75;;;2.17;;
10045;SDS011;5063;50.878;4.742;2023-09-19T10:43:17;5.55;;;2.20;;
10045;SDS011;5063;50.878;4.742;2023-09-19T10:45:44;5.87;;;2.07;;
10045;SDS011;5063;50.878;4.742;2023-09-19T10:48:20;3.92;;;1.70;;
10045;SDS011;5063;50.878;4.742;2023-09-19T10:56:17;3.13;;;1.80;;
10045;SDS011;5063;50.878;4.742;2023-09-19T10:58:49;6.57;;;1.80;;
10045;SDS011;5063;50.878;4.742;2023-09-19T11:01:16;5.13;;;1.63;;
10045;SDS011;5063;50.878;4.742;2023-09-19T11:03:42;2.53;;;1.40;;
10045;SDS011;5063;50.878;4.742;2023-09-19T11:06:15;5.43;;;2.08;;
10045;SDS011;5063;50.878;4.742;2023-09-19T11:08:57;4.63;;;1.92;;
10045;SDS011;5063;50.878;4.742;2023-09-19T11:11:38;3.08;;;1.70;;
10045;SDS011;5063;50.878;4.742;2023-09-19T11:30:36;3.95;;;1.48;;
10045;SDS011;5063;50.878;4.742;2023-09-19T11:33:19;4.35;;;1.25;;
10045;SDS011;5063;50.878;4.742;2023-09-19T11:36:07;1.88;;;1.30;;
10045;SDS011;5063;50.878;4.742;2023-09-19T11:38:57;3.30;;;1.15;;
10045;SDS011;5063;50.878;4.742;2023-09-19T11:49:23;3.05;;;1.30;;
10045;SDS011;5063;50.878;4.742;2023-09-19T11:52:01;3.53;;;1.30;;
10045;SDS011;5063;50.878;4.742;2023-09-19T11:54:33;1.65;;;0.75;;
10045;SDS011;5063;50.878;4.742;2023-09-19T11:57:01;4.05;;;1.48;;
10045;SDS011;5063;50.878;4.742;2023-09-19T11:59:30;3.38;;;1.45;;
10045;SDS011;5063;50.878;4.742;2023-09-19T12:02:00;4.22;;;1.20;;
10045;SDS011;5063;50.878;4.742;2023-09-19T12:07:10;6.70;;;1.38;;
10045;SDS011;5063;50.878;4.742;2023-09-19T12:09:48;3.33;;;1.38;;
10045;SDS011;5063;50.878;4.742;2023-09-19T12:12:19;3.10;;;1.25;;
10045;SDS011;5063;50.878;4.742;2023-09-19T12:14:50;3.22;;;1.55;;
10045;SDS011;5063;50.878;4.742;2023-09-19T12:17:19;1.77;;;1.13;;
10045;SDS011;5063;50.878;4.742;2023-09-19T12:19:55;1.67;;;0.80;;
10045;SDS011;5063;50.878;4.742;2023-09-19T12:22:24;5.32;;;1.40;;
10045;SDS011;5063;50.878;4.742;2023-09-19T12:24:50;5.93;;;1.35;;
10045;SDS011;5063;50.878;4.742;2023-09-19T12:27:19;4.10;;;1.30;;
10045;SDS011;5063;50.878;4.742;2023-09-19T12:29:48;3.90;;;1.50;;
10045;SDS011;5063;50.878;4.742;2023-09-19T12:32:15;4.22;;;1.38;;
10045;SDS011;5063;50.878;4.742;2023-09-19T12:34:52;3.30;;;1.23;;
10045;SDS011;5063;50.878;4.742;2023-09-19T12:37:19;4.03;;;1.13;;
10045;SDS011;5063;50.878;4.742;2023-09-19T12:39:52;2.83;;;1.25;;
10045;SDS011;5063;50.878;4.742;2023-09-19T12:42:39;1.50;;;1.10;;
10045;SDS011;5063;50.878;4.742;2023-09-19T12:45:06;4.03;;;1.27;;
10045;SDS011;5063;50.878;4.742;2023-09-19T12:47:34;6.40;;;1.67;;
10045;SDS011;5063;50.878;4.742;2023-09-19T12:52:36;3.80;;;1.20;;
10045;SDS011;5063;50.878;4.742;2023-09-19T12:55:02;4.55;;;1.80;;
10045;SDS011;5063;50.878;4.742;2023-09-19T12:57:30;2.53;;;1.23;;
10045;SDS011;5063;50.878;4.742;2023-09-19T12:59:59;3.28;;;1.55;;
10045;SDS011;5063;50.878;4.742;2023-09-19T13:02:31;4.65;;;1.67;;
10045;SDS011;5063;50.878;4.742;2023-09-19T13:04:57;4.88;;;1.20;;
10045;SDS011;5063;50.878;4.742;2023-09-19T13:07:44;2.97;;;1.08;;
10045;SDS011;5063;50.878;4.742;2023-09-19T13:10:12;3.08;;;1.23;;
10045;SDS011;5063;50.878;4.742;2023-09-19T13:12:41;3.08;;;1.42;;
10045;SDS011;5063;50.878;4.742;2023-09-19T13:15:13;2.65;;;1.20;;
10045;SDS011;5063;50.878;4.742;2023-09-19T13:17:44;3.50;;;1.38;;
10045;SDS011;5063;50.878;4.742;2023-09-19T13:20:23;2.55;;;1.27;;
10045;SDS011;5063;50.878;4.742;2023-09-19T13:22:53;3.13;;;1.40;;
10045;SDS011;5063;50.878;4.742;2023-09-19T13:25:23;6.13;;;1.42;;
10045;SDS011;5063;50.878;4.742;2023-09-19T13:27:50;5.18;;;1.40;;
10045;SDS011;5063;50.878;4.742;2023-09-19T13:30:19;5.70;;;1.45;;
10045;SDS011;5063;50.878;4.742;2023-09-19T13:32:45;2.20;;;1.20;;
10045;SDS011;5063;50.878;4.742;2023-09-19T13:35:12;2.10;;;1.20;;
10045;SDS011;5063;50.878;4.742;2023-09-19T13:37:39;8.07;;;1.25;;
10045;SDS011;5063;50.878;4.742;2023-09-19T13:40:13;6.68;;;1.40;;
10045;SDS011;5063;50.878;4.742;2023-09-19T13:42:40;2.83;;;1.35;;
10045;SDS011;5063;50.878;4.742;2023-09-19T13:45:07;3.10;;;1.25;;
10045;SDS011;5063;50.878;4.742;2023-09-19T13:47:36;3.22;;;1.38;;
10045;SDS011;5063;50.878;4.742;2023-09-19T13:50:03;2.35;;;1.33;;
10045;SDS011;5063;50.878;4.742;2023-09-19T13:52:33;2.47;;;1.20;;
10045;SDS011;5063;50.878;4.742;2023-09-19T13:54:58;3.30;;;1.48;;
10045;SDS011;5063;50.878;4.742;2023-09-19T13:57:24;2.70;;;1.33;;
10045;SDS011;5063;50.878;4.742;2023-09-19T13:59:51;2.85;;;1.30;;
10045;SDS011;5063;50.878;4.742;2023-09-19T14:02:19;5.63;;;1.38;;
10045;SDS011;5063;50.878;4.742;2023-09-19T14:04:48;2.72;;;0.75;;
10045;SDS011;5063;50.878;4.742;2023-09-19T14:07:15;3.70;;;1.20;;
10045;SDS011;5063;50.878;4.742;2023-09-19T14:09:42;4.38;;;1.10;;
10045;SDS011;5063;50.878;4.742;2023-09-19T14:12:08;5.82;;;1.52;;
10045;SDS011;5063;50.878;4.742;2023-09-19T14:14:34;4.10;;;1.52;;
10045;SDS011;5063;50.878;4.742;2023-09-19T14:17:00;3.63;;;1.33;;
10045;SDS011;5063;50.878;4.742;2023-09-19T14:19:26;2.72;;;1.27;;
10045;SDS011;5063;50.878;4.742;2023-09-19T14:21:52;3.47;;;1.17;;
10045;SDS011;5063;50.878;4.742;2023-09-19T14:24:20;4.72;;;1.30;;
10045;SDS011;5063;50.878;4.742;2023-09-19T14:26:46;4.82;;;1.80;;
10045;SDS011;5063;50.878;4.742;2023-09-19T14:29:12;3.40;;;1.67;;
10045;SDS011;5063;50.878;4.742;2023-09-19T14:31:39;5.60;;;1.40;;
10045;SDS011;5063;50.878;4.742;2023-09-19T14:34:05;7.30;;;1.40;;
10045;SDS011;5063;50.878;4.742;2023-09-19T14:36:31;2.92;;;1.35;;
10045;SDS011;5063;50.878;4.742;2023-09-19T14:38:58;4.40;;;1.30;;
10045;SDS011;5063;50.878;4.742;2023-09-19T14:41:24;6.00;;;1.50;;
10045;SDS011;5063;50.878;4.742;2023-09-19T14:43:51;4.78;;;1.45;;
10045;SDS011;5063;50.878;4.742;2023-09-19T14:46:17;2.80;;;1.30;;
10045;SDS011;5063;50.878;4.742;2023-09-19T14:48:44;3.35;;;1.40;;
10045;SDS011;5063;50.878;4.742;2023-09-19T14:51:12;5.25;;;1.38;;
10045;SDS011;5063;50.878;4.742;2023-09-19T14:53:39;2.33;;;1.35;;
10045;SDS011;5063;50.878;4.742;2023-09-19T14:56:06;3.15;;;1.00;;
10045;SDS011;5063;50.878;4.742;2023-09-19T14:58:33;9.52;;;1.58;;
10045;SDS011;5063;50.878;4.742;2023-09-19T15:01:06;4.53;;;1.45;;
10045;SDS011;5063;50.878;4.742;2023-09-19T15:03:35;1.55;;;1.27;;
10045;SDS011;5063;50.878;4.742;2023-09-19T15:06:02;6.30;;;1.50;;
10045;SDS011;5063;50.878;4.742;2023-09-19T15:08:30;5.38;;;1.55;;
10045;SDS011;5063;50.878;4.742;2023-09-19T15:10:56;2.75;;;1.42;;
10045;SDS011;5063;50.878;4.742;2023-09-19T15:13:24;4.55;;;1.73;;
10045;SDS011;5063;50.878;4.742;2023-09-19T15:15:58;1.60;;;1.23;;
10045;SDS011;5063;50.878;4.742;2023-09-19T15:18:25;4.32;;;1.55;;
10045;SDS011;5063;50.878;4.742;2023-09-19T15:20:50;5.82;;;1.80;;
10045;SDS011;5063;50.878;4.742;2023-09-19T15:23:16;3.00;;;1.30;;
10045;SDS011;5063;50.878;4.742;2023-09-19T15:25:50;3.63;;;1.80;;
10045;SDS011;5063;50.878;4.742;2023-09-19T15:28:16;2.95;;;1.55;;
10045;SDS011;5063;50.878;4.742;2023-09-19T15:30:42;7.80;;;2.08;;
10045;SDS011;5063;50.878;4.742;2023-09-19T15:33:07;3.28;;;1.85;;
10045;SDS011;5063;50.878;4.742;2023-09-19T15:35:33;8.13;;;2.13;;
10045;SDS011;5063;50.878;4.742;2023-09-19T15:38:02;3.50;;;1.75;;
10045;SDS011;5063;50.878;4.742;2023-09-19T15:40:29;3.40;;;1.52;;
10045;SDS011;5063;50.878;4.742;2023-09-19T15:42:54;4.63;;;1.58;;
10045;SDS011;5063;50.878;4.742;2023-09-19T15:45:23;3.22;;;1.77;;
10045;SDS011;5063;50.878;4.742;2023-09-19T15:47:50;4.32;;;1.73;;
10045;SDS011;5063;50.878;4.742;2023-09-19T15:50:16;4.13;;;1.65;;
10045;SDS011;5063;50.878;4.742;2023-09-19T15:52:42;2.72;;;1.60;;
10045;SDS011;5063;50.878;4.742;2023-09-19T15:55:08;3.00;;;1.50;;
10045;SDS011;5063;50.878;4.742;2023-09-19T15:57:37;2.17;;;1.38;;
10045;SDS011;5063;50.878;4.742;2023-09-19T16:00:04;5.28;;;1.50;;
10045;SDS011;5063;50.878;4.742;2023-09-19T16:02:35;4.80;;;1.50;;